sensor_id;sensor_type;location;lat;lon;timestamp;pressure;altitude;pressure_sealevel;temperature;humidity
40940;BME280;26666;50.156;7.700;2023-02-28T00:00:35;101604.38;;;1.10;78.54
40940;BME280;26666;50.156;7.700;2023-02-28T00:05:37;101605.44;;;1.01;79.88
40940;BME280;26666;50.156;7.700;2023-02-28T00:10:39;101599.22;;;1.07;78.77
40940;BME280;26666;50.156;7.700;2023-02-28T00:15:40;101601.94;;;1.04;79.12
40940;BME280;26666;50.156;7.700;2023-02-28T00:20:42;101593.88;;;0.80;78.59
40940;BME280;26666;50.156;7.700;2023-02-28T00:25:43;101604.22;;;0.82;78.24
40940;BME280;26666;50.156;7.700;2023-02-28T00:30:46;101601.13;;;0.66;79.75
40940;BME280;26666;50.156;7.700;2023-02-28T00:35:48;101601.16;;;0.64;79.77
40940;BME280;26666;50.156;7.700;2023-02-28T00:40:50;101598.47;;;0.69;78.84
40940;BME280;26666;50.156;7.700;2023-02-28T00:45:51;101607.66;;;0.46;80.25
40940;BME280;26666;50.156;7.700;2023-02-28T00:50:53;101603.72;;;0.66;80.36
40940;BME280;26666;50.156;7.700;2023-02-28T00:55:54;101611.09;;;0.47;80.15
40940;BME280;26666;50.156;7.700;2023-02-28T01:00:56;101605.00;;;0.49;79.27
40940;BME280;26666;50.156;7.700;2023-02-28T01:05:57;101610.63;;;0.31;80.38
40940;BME280;26666;50.156;7.700;2023-02-28T01:11:10;101612.47;;;0.26;80.91
40940;BME280;26666;50.156;7.700;2023-02-28T01:16:12;101602.75;;;0.34;79.83
40940;BME280;26666;50.156;7.700;2023-02-28T01:21:17;101611.69;;;0.22;80.74
40940;BME280;26666;50.156;7.700;2023-02-28T01:26:21;101609.19;;;0.17;80.50
40940;BME280;26666;50.156;7.700;2023-02-28T01:31:23;101603.09;;;0.18;81.18
40940;BME280;26666;50.156;7.700;2023-02-28T01:36:25;101598.09;;;0.09;81.34
40940;BME280;26666;50.156;7.700;2023-02-28T01:41:29;101602.28;;;0.16;81.71
40940;BME280;26666;50.156;7.700;2023-02-28T01:46:34;101605.03;;;0.10;81.41
40940;BME280;26666;50.156;7.700;2023-02-28T01:51:42;101599.84;;;0.09;82.05
40940;BME280;26666;50.156;7.700;2023-02-28T01:56:48;101600.81;;;0.05;82.48
40940;BME280;26666;50.156;7.700;2023-02-28T02:01:51;101596.75;;;-0.09;82.64
40940;BME280;26666;50.156;7.700;2023-02-28T02:06:53;101586.09;;;0.04;83.11
40940;BME280;26666;50.156;7.700;2023-02-28T02:11:56;101595.88;;;-0.08;83.36
40940;BME280;26666;50.156;7.700;2023-02-28T02:17:02;101589.16;;;-0.18;83.76
40940;BME280;26666;50.156;7.700;2023-02-28T02:22:30;101581.28;;;-0.13;83.88
40940;BME280;26666;50.156;7.700;2023-02-28T02:33:42;101585.03;;;-0.27;83.63
40940;BME280;26666;50.156;7.700;2023-02-28T02:44:30;101575.47;;;-0.26;85.34
40940;BME280;26666;50.156;7.700;2023-02-28T02:49:34;101579.22;;;-0.40;85.20
40940;BME280;26666;50.156;7.700;2023-02-28T02:54:39;101580.84;;;-0.35;85.19
40940;BME280;26666;50.156;7.700;2023-02-28T02:59:42;101587.22;;;-0.50;84.98
40940;BME280;26666;50.156;7.700;2023-02-28T03:04:51;101587.81;;;-0.36;84.90
40940;BME280;26666;50.156;7.700;2023-02-28T03:09:55;101587.03;;;-0.41;85.58
40940;BME280;26666;50.156;7.700;2023-02-28T03:20:29;101582.59;;;-0.36;84.22
40940;BME280;26666;50.156;7.700;2023-02-28T03:25:51;101584.78;;;-0.58;85.05
40940;BME280;26666;50.156;7.700;2023-02-28T03:31:00;101583.22;;;-0.67;86.15
40940;BME280;26666;50.156;7.700;2023-02-28T03:36:15;101583.56;;;-0.40;85.70
40940;BME280;26666;50.156;7.700;2023-02-28T03:41:31;101585.63;;;-0.57;84.36
40940;BME280;26666;50.156;7.700;2023-02-28T03:46:36;101586.47;;;-0.55;86.75
40940;BME280;26666;50.156;7.700;2023-02-28T03:51:41;101594.50;;;-0.68;86.14
40940;BME280;26666;50.156;7.700;2023-02-28T03:56:50;101593.63;;;-0.68;85.70
40940;BME280;26666;50.156;7.700;2023-02-28T04:01:53;101597.84;;;-0.63;85.64
40940;BME280;26666;50.156;7.700;2023-02-28T04:07:05;101597.25;;;-0.77;85.25
40940;BME280;26666;50.156;7.700;2023-02-28T04:12:08;101595.59;;;-0.81;85.45
40940;BME280;26666;50.156;7.700;2023-02-28T04:17:09;101605.06;;;-0.78;86.48
40940;BME280;26666;50.156;7.700;2023-02-28T04:22:11;101598.22;;;-0.83;86.24
40940;BME280;26666;50.156;7.700;2023-02-28T04:27:13;101607.06;;;-0.94;86.10
40940;BME280;26666;50.156;7.700;2023-02-28T04:32:14;101599.41;;;-1.01;85.77
40940;BME280;26666;50.156;7.700;2023-02-28T04:37:16;101589.03;;;-1.01;86.91
40940;BME280;26666;50.156;7.700;2023-02-28T04:42:17;101594.22;;;-1.01;86.34
40940;BME280;26666;50.156;7.700;2023-02-28T04:47:19;101592.34;;;-0.94;87.03
40940;BME280;26666;50.156;7.700;2023-02-28T04:52:20;101596.81;;;-1.01;86.41
40940;BME280;26666;50.156;7.700;2023-02-28T04:57:22;101598.69;;;-1.09;84.97
40940;BME280;26666;50.156;7.700;2023-02-28T05:02:23;101600.28;;;-1.02;86.61
40940;BME280;26666;50.156;7.700;2023-02-28T05:07:25;101598.72;;;-1.10;87.17
40940;BME280;26666;50.156;7.700;2023-02-28T05:12:26;101597.88;;;-1.12;86.29
40940;BME280;26666;50.156;7.700;2023-02-28T05:17:28;101595.16;;;-1.05;87.36
40940;BME280;26666;50.156;7.700;2023-02-28T05:22:29;101596.94;;;-1.07;86.37
40940;BME280;26666;50.156;7.700;2023-02-28T05:27:31;101613.44;;;-1.11;86.22
40940;BME280;26666;50.156;7.700;2023-02-28T05:32:33;101610.41;;;-0.88;87.23
40940;BME280;26666;50.156;7.700;2023-02-28T05:37:34;101604.97;;;-1.22;86.57
40940;BME280;26666;50.156;7.700;2023-02-28T05:42:36;101610.03;;;-1.14;85.97
40940;BME280;26666;50.156;7.700;2023-02-28T05:47:41;101611.69;;;-1.12;86.83
40940;BME280;26666;50.156;7.700;2023-02-28T05:52:51;101605.34;;;-0.94;86.91
40940;BME280;26666;50.156;7.700;2023-02-28T05:57:52;101612.50;;;-1.08;86.54
40940;BME280;26666;50.156;7.700;2023-02-28T06:02:54;101617.91;;;-1.21;86.96
40940;BME280;26666;50.156;7.700;2023-02-28T06:07:55;101620.47;;;-1.19;87.49
40940;BME280;26666;50.156;7.700;2023-02-28T06:12:59;101628.06;;;-1.07;85.85
40940;BME280;26666;50.156;7.700;2023-02-28T06:18:01;101623.59;;;-0.98;85.32
40940;BME280;26666;50.156;7.700;2023-02-28T06:23:03;101629.41;;;-1.39;86.74
40940;BME280;26666;50.156;7.700;2023-02-28T06:28:04;101624.63;;;-1.09;86.86
40940;BME280;26666;50.156;7.700;2023-02-28T06:33:06;101633.38;;;-1.16;86.89
40940;BME280;26666;50.156;7.700;2023-02-28T06:38:07;101634.53;;;-0.81;87.17
40940;BME280;26666;50.156;7.700;2023-02-28T06:43:09;101633.88;;;-0.94;88.42
40940;BME280;26666;50.156;7.700;2023-02-28T06:48:10;101631.41;;;-1.02;88.75
40940;BME280;26666;50.156;7.700;2023-02-28T06:53:12;101647.84;;;-1.01;88.27
40940;BME280;26666;50.156;7.700;2023-02-28T06:58:14;101652.16;;;-0.50;88.33
40940;BME280;26666;50.156;7.700;2023-02-28T07:03:15;101655.75;;;-0.59;88.99
40940;BME280;26666;50.156;7.700;2023-02-28T07:08:17;101656.44;;;-0.49;88.75
40940;BME280;26666;50.156;7.700;2023-02-28T07:13:18;101653.19;;;0.25;87.68
40940;BME280;26666;50.156;7.700;2023-02-28T07:18:20;101662.84;;;0.22;86.26
40940;BME280;26666;50.156;7.700;2023-02-28T07:23:24;101661.97;;;0.60;84.90
40940;BME280;26666;50.156;7.700;2023-02-28T07:28:26;101655.81;;;1.34;82.06
40940;BME280;26666;50.156;7.700;2023-02-28T07:33:27;101664.47;;;1.99;78.78
40940;BME280;26666;50.156;7.700;2023-02-28T07:38:29;101650.31;;;2.06;75.78
40940;BME280;26666;50.156;7.700;2023-02-28T07:43:31;101645.91;;;2.38;76.56
40940;BME280;26666;50.156;7.700;2023-02-28T07:48:33;101656.25;;;2.41;74.84
40940;BME280;26666;50.156;7.700;2023-02-28T07:53:35;101650.84;;;2.75;72.90
40940;BME280;26666;50.156;7.700;2023-02-28T07:58:37;101652.03;;;2.65;72.41
40940;BME280;26666;50.156;7.700;2023-02-28T08:03:39;101661.09;;;3.08;70.92
40940;BME280;26666;50.156;7.700;2023-02-28T08:08:41;101655.41;;;2.95;68.11
40940;BME280;26666;50.156;7.700;2023-02-28T08:13:43;101642.28;;;3.24;69.46
40940;BME280;26666;50.156;7.700;2023-02-28T08:18:45;101648.88;;;3.59;66.41
40940;BME280;26666;50.156;7.700;2023-02-28T08:23:48;101648.56;;;3.43;66.41
40940;BME280;26666;50.156;7.700;2023-02-28T08:28:50;101644.94;;;3.96;63.52
40940;BME280;26666;50.156;7.700;2023-02-28T08:33:51;101644.38;;;3.88;64.60
40940;BME280;26666;50.156;7.700;2023-02-28T08:38:53;101643.81;;;4.03;62.98
40940;BME280;26666;50.156;7.700;2023-02-28T08:43:55;101645.50;;;4.04;63.53
40940;BME280;26666;50.156;7.700;2023-02-28T08:48:57;101641.84;;;4.54;62.66
40940;BME280;26666;50.156;7.700;2023-02-28T08:53:59;101637.00;;;4.43;61.90
40940;BME280;26666;50.156;7.700;2023-02-28T08:59:01;101634.19;;;4.92;59.92
40940;BME280;26666;50.156;7.700;2023-02-28T09:04:03;101635.38;;;4.63;59.66
40940;BME280;26666;50.156;7.700;2023-02-28T09:09:04;101642.38;;;4.62;58.58
40940;BME280;26666;50.156;7.700;2023-02-28T09:14:06;101638.78;;;4.65;59.79
40940;BME280;26666;50.156;7.700;2023-02-28T09:19:10;101627.66;;;5.02;58.35
40940;BME280;26666;50.156;7.700;2023-02-28T09:24:12;101624.13;;;5.03;59.09
40940;BME280;26666;50.156;7.700;2023-02-28T09:29:13;101626.53;;;4.87;58.52
40940;BME280;26666;50.156;7.700;2023-02-28T09:34:15;101631.72;;;5.09;57.98
40940;BME280;26666;50.156;7.700;2023-02-28T09:39:17;101622.75;;;5.36;56.69
40940;BME280;26666;50.156;7.700;2023-02-28T09:44:39;101625.03;;;5.23;55.66
40940;BME280;26666;50.156;7.700;2023-02-28T09:49:47;101615.06;;;4.90;54.73
40940;BME280;26666;50.156;7.700;2023-02-28T09:54:48;101619.56;;;4.86;54.62
40940;BME280;26666;50.156;7.700;2023-02-28T10:00:02;101621.94;;;4.50;54.36
40940;BME280;26666;50.156;7.700;2023-02-28T10:05:28;101614.69;;;4.79;53.89
40940;BME280;26666;50.156;7.700;2023-02-28T10:15:39;101612.44;;;4.47;53.14
40940;BME280;26666;50.156;7.700;2023-02-28T10:20:41;101614.25;;;4.67;53.64
40940;BME280;26666;50.156;7.700;2023-02-28T10:25:49;101608.00;;;4.92;55.61
40940;BME280;26666;50.156;7.700;2023-02-28T10:30:54;101628.31;;;5.07;53.81
40940;BME280;26666;50.156;7.700;2023-02-28T10:35:56;101623.69;;;4.49;54.54
40940;BME280;26666;50.156;7.700;2023-02-28T10:41:09;101624.44;;;4.96;53.96
40940;BME280;26666;50.156;7.700;2023-02-28T10:46:16;101634.19;;;4.92;54.05
40940;BME280;26666;50.156;7.700;2023-02-28T10:51:22;101624.31;;;4.99;53.06
40940;BME280;26666;50.156;7.700;2023-02-28T10:56:24;101625.94;;;4.59;52.52
40940;BME280;26666;50.156;7.700;2023-02-28T11:06:33;101615.09;;;4.68;53.96
40940;BME280;26666;50.156;7.700;2023-02-28T11:11:43;101619.38;;;4.48;52.77
40940;BME280;26666;50.156;7.700;2023-02-28T11:16:46;101615.91;;;4.70;52.48
40940;BME280;26666;50.156;7.700;2023-02-28T11:22:00;101616.44;;;4.78;53.49
40940;BME280;26666;50.156;7.700;2023-02-28T11:27:02;101607.00;;;4.74;52.05
40940;BME280;26666;50.156;7.700;2023-02-28T11:32:16;101605.94;;;4.78;52.08
40940;BME280;26666;50.156;7.700;2023-02-28T11:37:27;101604.53;;;4.71;53.59
40940;BME280;26666;50.156;7.700;2023-02-28T11:47:54;101588.50;;;5.20;52.26
40940;BME280;26666;50.156;7.700;2023-02-28T11:53:10;101577.56;;;5.10;51.30
40940;BME280;26666;50.156;7.700;2023-02-28T11:58:24;101578.75;;;5.03;51.75
40940;BME280;26666;50.156;7.700;2023-02-28T12:20:12;101608.06;;;5.11;49.04
40940;BME280;26666;50.156;7.700;2023-02-28T12:31:11;101592.16;;;4.95;48.70
40940;BME280;26666;50.156;7.700;2023-02-28T12:36:17;101576.53;;;5.14;49.26
40940;BME280;26666;50.156;7.700;2023-02-28T12:42:19;101593.09;;;5.14;50.17
40940;BME280;26666;50.156;7.700;2023-02-28T12:47:14;101586.53;;;5.04;50.83
40940;BME280;26666;50.156;7.700;2023-02-28T12:52:23;101565.50;;;5.06;48.51
40940;BME280;26666;50.156;7.700;2023-02-28T12:57:49;101558.50;;;4.86;48.50
40940;BME280;26666;50.156;7.700;2023-02-28T13:08:15;101552.59;;;5.01;49.47
40940;BME280;26666;50.156;7.700;2023-02-28T13:13:26;101559.59;;;5.21;49.17
40940;BME280;26666;50.156;7.700;2023-02-28T13:18:45;101586.44;;;5.06;49.29
40940;BME280;26666;50.156;7.700;2023-02-28T13:24:03;101573.09;;;4.91;48.87
40940;BME280;26666;50.156;7.700;2023-02-28T13:34:16;101554.38;;;5.01;49.70
40940;BME280;26666;50.156;7.700;2023-02-28T13:50:30;101545.91;;;4.94;48.88
40940;BME280;26666;50.156;7.700;2023-02-28T13:55:45;101555.84;;;5.08;49.52
40940;BME280;26666;50.156;7.700;2023-02-28T14:11:33;101523.06;;;5.18;49.73
40940;BME280;26666;50.156;7.700;2023-02-28T14:16:45;101538.47;;;5.45;49.53
40940;BME280;26666;50.156;7.700;2023-02-28T14:22:00;101530.31;;;5.11;49.89
40940;BME280;26666;50.156;7.700;2023-02-28T14:32:54;101525.16;;;5.49;50.46
40940;BME280;26666;50.156;7.700;2023-02-28T14:38:05;101519.69;;;5.35;49.95
40940;BME280;26666;50.156;7.700;2023-02-28T14:43:19;101513.28;;;5.22;50.40
40940;BME280;26666;50.156;7.700;2023-02-28T14:48:22;101518.75;;;4.97;50.29
40940;BME280;26666;50.156;7.700;2023-02-28T14:53:35;101514.00;;;5.25;50.77
40940;BME280;26666;50.156;7.700;2023-02-28T14:58:37;101518.88;;;5.14;50.71
40940;BME280;26666;50.156;7.700;2023-02-28T15:03:39;101503.31;;;5.30;51.34
40940;BME280;26666;50.156;7.700;2023-02-28T15:08:41;101521.78;;;5.27;50.81
40940;BME280;26666;50.156;7.700;2023-02-28T15:13:50;101511.19;;;5.09;51.68
40940;BME280;26666;50.156;7.700;2023-02-28T15:24:31;101520.00;;;5.08;51.72
40940;BME280;26666;50.156;7.700;2023-02-28T15:29:55;101531.44;;;5.06;51.21
40940;BME280;26666;50.156;7.700;2023-02-28T15:34:59;101527.06;;;5.06;52.20
40940;BME280;26666;50.156;7.700;2023-02-28T15:50:38;101534.75;;;5.30;52.12
40940;BME280;26666;50.156;7.700;2023-02-28T15:55:39;101535.75;;;5.27;51.52
40940;BME280;26666;50.156;7.700;2023-02-28T16:00:43;101536.63;;;5.07;52.34
40940;BME280;26666;50.156;7.700;2023-02-28T16:05:45;101535.38;;;4.96;51.77
40940;BME280;26666;50.156;7.700;2023-02-28T16:10:46;101545.13;;;5.12;51.63
40940;BME280;26666;50.156;7.700;2023-02-28T16:15:48;101539.06;;;5.12;52.41
40940;BME280;26666;50.156;7.700;2023-02-28T16:20:49;101538.97;;;5.13;51.97
40940;BME280;26666;50.156;7.700;2023-02-28T16:25:51;101539.69;;;5.17;52.23
40940;BME280;26666;50.156;7.700;2023-02-28T16:30:53;101547.16;;;5.06;51.87
40940;BME280;26666;50.156;7.700;2023-02-28T16:35:55;101545.34;;;5.08;51.96
40940;BME280;26666;50.156;7.700;2023-02-28T16:40:59;101539.19;;;5.09;52.38
40940;BME280;26666;50.156;7.700;2023-02-28T16:46:00;101560.84;;;4.92;52.60
40940;BME280;26666;50.156;7.700;2023-02-28T16:51:02;101558.81;;;4.78;53.64
40940;BME280;26666;50.156;7.700;2023-02-28T16:56:04;101559.34;;;5.07;53.53
40940;BME280;26666;50.156;7.700;2023-02-28T17:01:06;101572.16;;;4.72;53.88
40940;BME280;26666;50.156;7.700;2023-02-28T17:06:22;101575.06;;;5.07;53.62
40940;BME280;26666;50.156;7.700;2023-02-28T17:11:25;101570.75;;;4.85;53.70
40940;BME280;26666;50.156;7.700;2023-02-28T17:16:32;101573.44;;;4.84;54.25
40940;BME280;26666;50.156;7.700;2023-02-28T17:21:34;101591.16;;;4.77;53.68
40940;BME280;26666;50.156;7.700;2023-02-28T17:26:36;101588.88;;;4.69;55.34
40940;BME280;26666;50.156;7.700;2023-02-28T17:31:38;101597.47;;;4.51;56.54
40940;BME280;26666;50.156;7.700;2023-02-28T17:36:41;101605.84;;;4.59;55.33
40940;BME280;26666;50.156;7.700;2023-02-28T17:41:43;101609.94;;;4.44;56.43
40940;BME280;26666;50.156;7.700;2023-02-28T17:46:45;101614.16;;;4.48;57.10
40940;BME280;26666;50.156;7.700;2023-02-28T17:51:47;101621.41;;;4.18;58.38
40940;BME280;26666;50.156;7.700;2023-02-28T17:56:48;101629.75;;;3.82;59.94
40940;BME280;26666;50.156;7.700;2023-02-28T18:01:50;101633.66;;;3.47;59.54
40940;BME280;26666;50.156;7.700;2023-02-28T18:06:53;101640.56;;;3.48;60.89
40940;BME280;26666;50.156;7.700;2023-02-28T18:11:55;101640.47;;;3.26;62.47
40940;BME280;26666;50.156;7.700;2023-02-28T18:16:57;101643.66;;;3.09;62.54
40940;BME280;26666;50.156;7.700;2023-02-28T18:21:58;101644.50;;;3.09;64.67
40940;BME280;26666;50.156;7.700;2023-02-28T18:27:00;101648.03;;;2.82;64.70
40940;BME280;26666;50.156;7.700;2023-02-28T18:32:01;101652.41;;;2.81;65.60
40940;BME280;26666;50.156;7.700;2023-02-28T18:37:03;101646.63;;;2.71;65.68
40940;BME280;26666;50.156;7.700;2023-02-28T18:42:04;101647.88;;;2.60;66.53
40940;BME280;26666;50.156;7.700;2023-02-28T18:47:06;101649.88;;;2.51;66.39
40940;BME280;26666;50.156;7.700;2023-02-28T18:52:08;101643.28;;;2.40;66.79
40940;BME280;26666;50.156;7.700;2023-02-28T18:57:09;101636.69;;;2.28;68.36
40940;BME280;26666;50.156;7.700;2023-02-28T19:02:11;101639.38;;;2.25;68.18
40940;BME280;26666;50.156;7.700;2023-02-28T19:07:12;101639.75;;;2.12;69.37
40940;BME280;26666;50.156;7.700;2023-02-28T19:12:14;101645.72;;;2.16;68.15
40940;BME280;26666;50.156;7.700;2023-02-28T19:17:15;101645.53;;;2.22;68.95
40940;BME280;26666;50.156;7.700;2023-02-28T19:22:17;101644.19;;;2.09;69.69
40940;BME280;26666;50.156;7.700;2023-02-28T19:27:19;101646.50;;;1.88;68.46
40940;BME280;26666;50.156;7.700;2023-02-28T19:32:20;101647.31;;;1.90;70.06
40940;BME280;26666;50.156;7.700;2023-02-28T19:37:22;101650.66;;;1.95;69.40
40940;BME280;26666;50.156;7.700;2023-02-28T19:42:24;101655.31;;;1.84;69.48
40940;BME280;26666;50.156;7.700;2023-02-28T19:47:26;101652.75;;;1.83;70.08
40940;BME280;26666;50.156;7.700;2023-02-28T19:52:28;101656.94;;;1.57;70.92
40940;BME280;26666;50.156;7.700;2023-02-28T19:57:29;101648.75;;;1.71;71.23
40940;BME280;26666;50.156;7.700;2023-02-28T20:02:31;101657.03;;;1.54;71.55
40940;BME280;26666;50.156;7.700;2023-02-28T20:07:33;101662.28;;;1.52;71.75
40940;BME280;26666;50.156;7.700;2023-02-28T20:12:34;101666.53;;;1.55;72.30
40940;BME280;26666;50.156;7.700;2023-02-28T20:17:36;101665.13;;;1.43;71.60
40940;BME280;26666;50.156;7.700;2023-02-28T20:22:38;101657.19;;;1.48;72.63
40940;BME280;26666;50.156;7.700;2023-02-28T20:27:40;101657.50;;;1.35;71.92
40940;BME280;26666;50.156;7.700;2023-02-28T20:32:41;101650.34;;;1.44;72.24
40940;BME280;26666;50.156;7.700;2023-02-28T20:37:43;101661.97;;;1.30;72.12
40940;BME280;26666;50.156;7.700;2023-02-28T20:42:44;101647.31;;;1.26;72.39
40940;BME280;26666;50.156;7.700;2023-02-28T20:47:46;101650.59;;;1.34;72.04
40940;BME280;26666;50.156;7.700;2023-02-28T20:52:47;101644.16;;;1.15;72.48
40940;BME280;26666;50.156;7.700;2023-02-28T20:57:49;101649.56;;;1.07;72.89
40940;BME280;26666;50.156;7.700;2023-02-28T21:02:50;101651.81;;;1.21;72.37
40940;BME280;26666;50.156;7.700;2023-02-28T21:07:52;101651.06;;;1.16;73.16
40940;BME280;26666;50.156;7.700;2023-02-28T21:12:54;101650.56;;;1.02;72.98
40940;BME280;26666;50.156;7.700;2023-02-28T21:17:55;101638.22;;;1.10;73.23
40940;BME280;26666;50.156;7.700;2023-02-28T21:22:57;101631.38;;;1.06;73.00
40940;BME280;26666;50.156;7.700;2023-02-28T21:27:58;101635.41;;;0.83;73.63
40940;BME280;26666;50.156;7.700;2023-02-28T21:33:00;101630.63;;;1.01;73.42
40940;BME280;26666;50.156;7.700;2023-02-28T21:38:01;101632.94;;;0.77;74.30
40940;BME280;26666;50.156;7.700;2023-02-28T21:43:03;101633.38;;;0.96;72.84
40940;BME280;26666;50.156;7.700;2023-02-28T21:48:04;101629.47;;;0.78;74.72
40940;BME280;26666;50.156;7.700;2023-02-28T21:53:06;101632.31;;;0.67;74.68
40940;BME280;26666;50.156;7.700;2023-02-28T21:58:07;101637.34;;;0.75;74.24
40940;BME280;26666;50.156;7.700;2023-02-28T22:03:09;101633.97;;;0.70;74.58
40940;BME280;26666;50.156;7.700;2023-02-28T22:08:10;101630.03;;;0.89;74.44
40940;BME280;26666;50.156;7.700;2023-02-28T22:13:12;101632.09;;;0.76;74.38
40940;BME280;26666;50.156;7.700;2023-02-28T22:18:13;101638.44;;;0.66;74.75
40940;BME280;26666;50.156;7.700;2023-02-28T22:23:15;101637.41;;;0.72;75.50
40940;BME280;26666;50.156;7.700;2023-02-28T22:28:16;101644.66;;;0.59;75.53
40940;BME280;26666;50.156;7.700;2023-02-28T22:33:18;101654.75;;;0.71;75.59
40940;BME280;26666;50.156;7.700;2023-02-28T22:38:19;101657.63;;;0.61;75.00
40940;BME280;26666;50.156;7.700;2023-02-28T22:43:21;101653.88;;;0.72;74.89
40940;BME280;26666;50.156;7.700;2023-02-28T22:48:22;101657.91;;;0.47;76.08
40940;BME280;26666;50.156;7.700;2023-02-28T22:53:24;101653.50;;;0.50;76.73
40940;BME280;26666;50.156;7.700;2023-02-28T22:58:25;101666.59;;;0.47;76.34
40940;BME280;26666;50.156;7.700;2023-02-28T23:03:27;101670.16;;;0.43;76.83
40940;BME280;26666;50.156;7.700;2023-02-28T23:08:30;101668.22;;;0.53;76.22
40940;BME280;26666;50.156;7.700;2023-02-28T23:13:35;101676.13;;;0.47;75.73
40940;BME280;26666;50.156;7.700;2023-02-28T23:18:37;101679.81;;;0.36;76.18
40940;BME280;26666;50.156;7.700;2023-02-28T23:23:38;101681.13;;;0.56;75.95
40940;BME280;26666;50.156;7.700;2023-02-28T23:28:40;101678.94;;;0.39;75.99
40940;BME280;26666;50.156;7.700;2023-02-28T23:33:41;101684.22;;;0.33;76.87
40940;BME280;26666;50.156;7.700;2023-02-28T23:38:46;101686.34;;;0.56;76.38
40940;BME280;26666;50.156;7.700;2023-02-28T23:43:49;101680.81;;;0.31;77.76
40940;BME280;26666;50.156;7.700;2023-02-28T23:48:51;101679.19;;;0.25;76.76
40940;BME280;26666;50.156;7.700;2023-02-28T23:53:52;101676.19;;;0.45;77.37
40940;BME280;26666;50.156;7.700;2023-02-28T23:58:58;101662.03;;;0.18;77.55
